createdAt,value
2018-10-18T00:00:15.950Z,15.60
2018-10-18T00:02:44.267Z,15.60
2018-10-18T00:05:12.632Z,15.50
2018-10-18T00:07:41.043Z,15.40
2018-10-18T00:10:09.738Z,15.40
2018-10-18T00:12:38.182Z,15.50
2018-10-18T00:15:08.304Z,15.50
2018-10-18T00:17:42.038Z,15.70
2018-10-18T00:20:10.538Z,15.90
2018-10-18T00:22:38.924Z,16.00
2018-10-18T00:25:07.454Z,16.00
2018-10-18T00:27:36.168Z,16.00
2018-10-18T00:30:05.927Z,16.00
2018-10-18T00:32:34.241Z,15.80
2018-10-18T00:35:02.678Z,15.70
2018-10-18T00:37:31.094Z,15.60
2018-10-18T00:39:59.482Z,15.70
2018-10-18T00:42:27.854Z,15.80
2018-10-18T00:44:56.194Z,15.90
2018-10-18T00:47:24.595Z,15.80
2018-10-18T00:49:52.970Z,15.90
2018-10-18T00:52:21.343Z,15.80
2018-10-18T00:54:49.698Z,15.90
2018-10-18T00:57:18.079Z,15.80
2018-10-18T00:59:46.430Z,15.80
2018-10-18T01:02:14.873Z,15.70
2018-10-18T01:04:43.287Z,15.70
2018-10-18T01:07:11.674Z,15.60
2018-10-18T01:09:40.093Z,15.50
2018-10-18T01:12:08.561Z,15.50
2018-10-18T01:14:36.867Z,15.70
2018-10-18T01:17:05.858Z,15.70
2018-10-18T01:19:36.290Z,15.70
2018-10-18T01:22:05.778Z,15.90
2018-10-18T01:24:34.586Z,15.90
2018-10-18T01:27:03.007Z,15.70
2018-10-18T01:29:31.437Z,15.60
2018-10-18T01:32:00.208Z,15.50
2018-10-18T01:34:28.602Z,15.50
2018-10-18T01:36:56.980Z,15.50
2018-10-18T01:39:25.356Z,15.60
2018-10-18T01:41:53.715Z,15.50
2018-10-18T01:44:22.116Z,15.60
2018-10-18T01:46:50.504Z,15.50
2018-10-18T01:49:18.878Z,15.60
2018-10-18T01:51:47.314Z,15.50
2018-10-18T01:54:15.807Z,15.40
2018-10-18T01:56:44.123Z,15.40
2018-10-18T01:59:12.501Z,15.30
2018-10-18T02:01:40.870Z,15.30
2018-10-18T02:04:09.281Z,15.50
2018-10-18T02:06:37.693Z,15.50
2018-10-18T02:09:08.581Z,15.40
2018-10-18T02:11:37.015Z,15.30
2018-10-18T02:14:05.527Z,15.30
2018-10-18T02:16:33.984Z,15.20
2018-10-18T02:19:02.440Z,15.20
2018-10-18T02:21:30.772Z,15.30
2018-10-18T02:23:59.164Z,15.20
2018-10-18T02:26:27.535Z,15.20
2018-10-18T02:28:55.932Z,15.30
2018-10-18T02:31:24.269Z,15.30
2018-10-18T02:33:52.707Z,15.20
2018-10-18T02:36:21.119Z,15.10
2018-10-18T02:38:49.442Z,15.30
2018-10-18T02:41:17.801Z,15.30
2018-10-18T02:43:46.185Z,15.20
2018-10-18T02:46:14.596Z,15.20
2018-10-18T02:48:42.982Z,15.10
2018-10-18T02:51:11.343Z,15.00
2018-10-18T02:53:39.766Z,15.00
2018-10-18T02:56:08.111Z,15.30
2018-10-18T02:58:36.466Z,15.40
2018-10-18T03:01:04.961Z,15.40
2018-10-18T03:03:33.454Z,15.20
2018-10-18T03:06:01.869Z,15.20
2018-10-18T03:08:30.183Z,15.10
2018-10-18T03:10:58.539Z,15.20
2018-10-18T03:13:26.926Z,15.20
2018-10-18T03:15:55.410Z,15.10
2018-10-18T03:18:23.762Z,15.00
2018-10-18T03:20:52.247Z,14.90
2018-10-18T03:23:20.647Z,14.80
2018-10-18T03:25:49.063Z,14.80
2018-10-18T03:28:17.441Z,14.80
2018-10-18T03:30:45.840Z,14.80
2018-10-18T03:33:14.211Z,14.80
2018-10-18T03:35:42.622Z,15.00
2018-10-18T03:38:11.000Z,15.10
2018-10-18T03:40:39.402Z,15.10
2018-10-18T03:43:07.785Z,15.10
2018-10-18T03:45:36.266Z,15.20
2018-10-18T03:48:04.823Z,15.20
2018-10-18T03:50:33.149Z,15.20
2018-10-18T03:53:01.642Z,15.20
2018-10-18T03:55:30.050Z,15.10
2018-10-18T03:57:58.490Z,15.10
2018-10-18T04:00:26.903Z,15.10
2018-10-18T04:02:55.286Z,15.10
2018-10-18T04:05:23.673Z,15.20
2018-10-18T04:07:52.070Z,15.20
2018-10-18T04:10:20.489Z,15.30
2018-10-18T04:12:48.922Z,15.20
2018-10-18T04:15:17.315Z,15.20
2018-10-18T04:17:45.732Z,15.20
2018-10-18T04:20:14.086Z,15.20
2018-10-18T04:22:42.467Z,15.20
2018-10-18T04:25:10.844Z,15.20
2018-10-18T04:27:39.187Z,15.30
2018-10-18T04:30:08.294Z,15.20
2018-10-18T04:32:36.663Z,15.20
2018-10-18T04:35:06.259Z,15.10
2018-10-18T04:37:34.648Z,15.10
2018-10-18T04:40:03.035Z,15.10
2018-10-18T04:42:31.540Z,15.10
2018-10-18T04:44:59.903Z,15.00
2018-10-18T04:47:28.391Z,15.00
2018-10-18T04:49:56.668Z,15.00
2018-10-18T04:52:25.011Z,14.90
2018-10-18T04:54:53.418Z,14.90
2018-10-18T04:57:21.750Z,14.90
2018-10-18T04:59:50.119Z,14.80
2018-10-18T05:02:19.660Z,14.80
2018-10-18T05:04:59.466Z,14.70
2018-10-18T05:07:27.904Z,14.60
2018-10-18T05:09:56.548Z,14.60
2018-10-18T05:12:24.950Z,14.60
2018-10-18T05:14:53.322Z,14.60
2018-10-18T05:17:21.788Z,14.60
2018-10-18T05:19:50.197Z,14.60
2018-10-18T05:22:18.582Z,14.60
2018-10-18T05:24:47.045Z,14.60
2018-10-18T05:27:15.387Z,14.60
2018-10-18T05:29:43.815Z,14.60
2018-10-18T05:32:12.170Z,14.60
2018-10-18T05:34:40.554Z,14.60
2018-10-18T05:37:09.008Z,14.60
2018-10-18T05:39:37.365Z,14.60
2018-10-18T05:42:05.865Z,14.50
2018-10-18T05:44:34.239Z,14.50
2018-10-18T05:47:02.764Z,14.50
2018-10-18T05:49:31.104Z,14.40
2018-10-18T05:51:59.523Z,14.40
2018-10-18T05:54:27.997Z,14.40
2018-10-18T05:56:56.398Z,14.40
2018-10-18T05:59:24.789Z,14.30
2018-10-18T06:01:53.188Z,14.30
2018-10-18T06:04:21.592Z,14.20
2018-10-18T06:06:49.981Z,14.20
2018-10-18T06:09:28.542Z,14.20
2018-10-18T06:11:57.392Z,14.10
2018-10-18T06:14:26.006Z,14.20
2018-10-18T06:16:54.412Z,14.20
2018-10-18T06:19:26.242Z,14.30
2018-10-18T06:21:55.513Z,14.20
2018-10-18T06:24:28.942Z,14.20
2018-10-18T06:27:02.280Z,14.10
2018-10-18T06:29:43.905Z,14.10
2018-10-18T06:32:13.125Z,14.10
2018-10-18T06:34:45.600Z,14.10
2018-10-18T06:37:15.018Z,14.10
2018-10-18T06:39:44.252Z,14.00
2018-10-18T06:42:20.096Z,14.10
2018-10-18T06:44:50.327Z,14.10
2018-10-18T06:47:19.196Z,14.20
2018-10-18T06:49:47.590Z,14.20
2018-10-18T06:52:16.052Z,14.40
2018-10-18T06:54:44.764Z,14.40
2018-10-18T06:57:14.551Z,14.50
2018-10-18T06:59:46.624Z,14.60
2018-10-18T07:02:22.778Z,14.60
2018-10-18T07:04:54.468Z,14.70
2018-10-18T07:07:32.150Z,14.80
2018-10-18T07:10:02.276Z,14.90
2018-10-18T07:12:34.147Z,15.00
2018-10-18T07:15:03.048Z,14.90
2018-10-18T07:17:40.324Z,15.10
2018-10-18T07:20:10.944Z,15.20
2018-10-18T07:22:40.342Z,15.30
2018-10-18T07:25:11.036Z,15.40
2018-10-18T07:27:40.187Z,15.40
2018-10-18T07:30:09.935Z,15.40
2018-10-18T07:32:38.307Z,15.60
2018-10-18T07:35:08.015Z,15.60
2018-10-18T07:37:36.383Z,15.70
2018-10-18T07:40:05.404Z,15.90
2018-10-18T07:42:33.752Z,15.90
2018-10-18T07:45:02.137Z,15.90
2018-10-18T07:47:30.498Z,16.20
2018-10-18T07:49:58.884Z,16.40
2018-10-18T07:52:27.244Z,16.50
2018-10-18T07:54:55.595Z,16.70
2018-10-18T07:57:23.963Z,16.70
2018-10-18T07:59:52.396Z,16.80
2018-10-18T08:02:20.677Z,17.00
2018-10-18T08:04:49.087Z,17.10
2018-10-18T08:07:17.501Z,17.30
2018-10-18T08:09:45.853Z,17.40
2018-10-18T08:12:14.225Z,17.50
2018-10-18T08:14:42.559Z,17.40
2018-10-18T08:17:10.985Z,17.70
2018-10-18T08:19:39.318Z,18.00
2018-10-18T08:22:07.701Z,18.10
2018-10-18T08:24:36.055Z,18.30
2018-10-18T08:27:04.578Z,18.50
2018-10-18T08:29:32.950Z,18.50
2018-10-18T08:45:07.223Z,18.90
2018-10-18T08:47:35.627Z,18.80
2018-10-18T08:50:04.549Z,18.80
2018-10-18T08:52:32.930Z,18.80
2018-10-18T08:55:01.437Z,18.80
2018-10-18T08:57:29.844Z,19.00
2018-10-18T08:59:58.242Z,19.20
2018-10-18T09:02:26.707Z,19.70
2018-10-18T09:04:55.096Z,20.10
2018-10-18T09:07:23.499Z,20.30
2018-10-18T09:09:52.143Z,20.50
2018-10-18T09:12:20.539Z,21.10
2018-10-18T09:14:48.905Z,21.50
2018-10-18T09:17:17.332Z,21.80
2018-10-18T09:19:45.718Z,21.80
2018-10-18T09:22:14.128Z,21.70
2018-10-18T09:24:42.507Z,21.70
2018-10-18T09:27:10.985Z,21.90
2018-10-18T09:29:39.335Z,21.70
2018-10-18T09:32:07.721Z,21.70
2018-10-18T09:34:36.121Z,22.00
2018-10-18T09:37:05.024Z,21.90
2018-10-18T09:39:33.417Z,22.00
2018-10-18T09:42:01.822Z,21.90
2018-10-18T09:44:30.280Z,21.80
2018-10-18T09:46:58.630Z,21.80
2018-10-18T09:49:27.039Z,22.20
2018-10-18T09:51:55.437Z,22.70
2018-10-18T09:54:23.819Z,22.70
2018-10-18T09:56:52.239Z,22.60
2018-10-18T09:59:20.610Z,22.50
2018-10-18T10:01:54.275Z,22.10
2018-10-18T10:04:22.772Z,22.30
2018-10-18T10:06:51.087Z,22.30
2018-10-18T10:09:19.450Z,22.60
2018-10-18T10:11:47.962Z,22.90
2018-10-18T10:14:16.319Z,22.80
2018-10-18T10:16:44.719Z,22.80
2018-10-18T10:19:13.156Z,22.70
2018-10-18T10:21:41.539Z,23.00
2018-10-18T10:24:09.942Z,23.30
2018-10-18T10:26:38.328Z,23.10
2018-10-18T10:29:06.728Z,23.00
2018-10-18T10:31:35.087Z,22.70
2018-10-18T10:34:03.627Z,22.90
2018-10-18T10:36:31.962Z,22.50
2018-10-18T10:39:00.372Z,22.20
2018-10-18T10:41:28.698Z,22.30
2018-10-18T10:43:57.092Z,22.20
2018-10-18T10:46:25.439Z,22.30
2018-10-18T10:48:53.853Z,22.50
2018-10-18T10:51:22.171Z,22.70
2018-10-18T10:53:50.535Z,22.70
2018-10-18T10:56:18.994Z,22.70
2018-10-18T10:58:47.377Z,22.80
2018-10-18T11:01:23.014Z,22.70
2018-10-18T11:03:52.725Z,22.70
2018-10-18T11:06:21.182Z,22.90
2018-10-18T11:08:49.600Z,22.90
2018-10-18T11:11:18.682Z,23.00
2018-10-18T11:13:47.061Z,23.00
2018-10-18T11:16:15.407Z,22.80
2018-10-18T11:18:43.802Z,22.90
2018-10-18T11:21:13.607Z,23.10
2018-10-18T11:23:41.824Z,23.00
2018-10-18T11:26:10.269Z,23.10
2018-10-18T11:28:38.578Z,23.10
2018-10-18T11:31:06.931Z,22.90
2018-10-18T11:33:35.376Z,22.80
2018-10-18T11:36:03.907Z,23.30
2018-10-18T11:38:32.322Z,23.40
2018-10-18T11:41:00.799Z,23.40
2018-10-18T11:43:29.370Z,23.10
2018-10-18T11:45:57.906Z,23.20
2018-10-18T11:48:26.395Z,23.20
2018-10-18T11:50:54.927Z,23.00
2018-10-18T11:53:23.715Z,22.80
2018-10-18T11:55:52.438Z,22.50
2018-10-18T12:00:54.537Z,22.90
2018-10-18T12:03:24.138Z,22.70
2018-10-18T12:05:52.735Z,22.60
2018-10-18T12:08:21.246Z,22.60
2018-10-18T12:10:50.332Z,22.60
2018-10-18T12:13:19.070Z,22.50
2018-10-18T12:15:47.506Z,22.60
2018-10-18T12:18:16.014Z,22.80
2018-10-18T12:20:44.493Z,22.70
2018-10-18T12:23:13.652Z,22.40
2018-10-18T12:25:42.052Z,22.30
2018-10-18T12:28:10.566Z,22.50
2018-10-18T12:30:39.367Z,22.60
2018-10-18T12:33:07.837Z,22.60
2018-10-18T12:35:36.515Z,22.50
2018-10-18T12:38:05.346Z,22.20
2018-10-18T12:43:18.319Z,22.30
2018-10-18T12:45:48.317Z,22.20
2018-10-18T12:48:18.911Z,22.20
2018-10-18T12:50:47.395Z,22.20
2018-10-18T12:53:19.756Z,22.40
2018-10-18T12:55:51.395Z,22.50
2018-10-18T12:58:23.160Z,22.30
2018-10-18T13:03:40.364Z,22.30
2018-10-18T13:06:08.804Z,22.10
2018-10-18T13:08:37.225Z,22.10
2018-10-18T13:11:06.073Z,22.10
2018-10-18T13:13:36.784Z,22.10
2018-10-18T13:16:05.332Z,22.00
2018-10-18T13:18:33.751Z,22.00
2018-10-18T13:21:02.199Z,21.90
2018-10-18T13:23:30.618Z,21.80
2018-10-18T13:26:00.328Z,21.60
2018-10-18T13:28:29.001Z,21.50
2018-10-18T13:30:57.417Z,21.50
2018-10-18T13:33:28.004Z,21.60
2018-10-18T13:35:56.443Z,21.70
2018-10-18T13:38:24.814Z,21.50
2018-10-18T13:40:53.347Z,21.30
2018-10-18T13:43:21.671Z,21.30
2018-10-18T13:45:50.052Z,21.20
2018-10-18T13:48:18.446Z,21.20
2018-10-18T13:50:46.898Z,21.00
2018-10-18T13:53:15.258Z,20.90
2018-10-18T13:55:43.659Z,20.80
2018-10-18T13:58:12.056Z,20.80
2018-10-18T14:00:40.469Z,20.80
2018-10-18T14:03:08.859Z,20.80
2018-10-18T14:05:37.371Z,20.90
2018-10-18T14:08:05.780Z,21.00
2018-10-18T14:10:34.086Z,20.80
2018-10-18T14:13:02.465Z,20.60
2018-10-18T14:15:30.863Z,20.60
2018-10-18T14:17:59.355Z,20.70
2018-10-18T14:20:27.695Z,20.80
2018-10-18T14:22:56.047Z,20.70
2018-10-18T14:25:24.423Z,20.60
2018-10-18T14:27:52.770Z,20.50
2018-10-18T14:30:21.254Z,20.50
2018-10-18T14:32:49.511Z,20.60
2018-10-18T14:35:17.971Z,20.60
2018-10-18T14:37:46.268Z,20.40
2018-10-18T14:40:14.656Z,20.40
2018-10-18T14:42:43.017Z,20.50
2018-10-18T14:45:11.456Z,20.50
2018-10-18T14:47:39.849Z,20.30
2018-10-18T14:50:10.202Z,20.30
2018-10-18T14:52:38.498Z,20.30
2018-10-18T14:55:06.948Z,20.20
2018-10-18T14:57:35.351Z,20.10
2018-10-18T15:00:03.829Z,20.10
2018-10-18T15:02:32.195Z,20.10
2018-10-18T15:05:00.577Z,20.00
2018-10-18T15:07:28.954Z,20.00
2018-10-18T15:09:57.309Z,20.00
2018-10-18T15:12:25.753Z,19.90
2018-10-18T15:14:54.113Z,19.90
2018-10-18T15:17:22.483Z,19.90
2018-10-18T15:19:50.842Z,19.80
2018-10-18T15:22:19.220Z,19.80
2018-10-18T15:24:47.619Z,19.70
2018-10-18T15:27:16.087Z,19.70
2018-10-18T15:29:44.384Z,19.80
2018-10-18T15:32:12.792Z,19.80
2018-10-18T15:34:41.159Z,19.90
2018-10-18T15:37:09.523Z,19.80
2018-10-18T15:39:37.894Z,19.80
2018-10-18T15:42:06.476Z,19.70
2018-10-18T15:44:34.840Z,19.50
2018-10-18T15:47:03.232Z,19.40
2018-10-18T15:49:31.585Z,19.40
2018-10-18T15:52:00.055Z,19.40
2018-10-18T15:54:28.538Z,19.40
2018-10-18T15:56:56.876Z,19.20
2018-10-18T15:59:25.930Z,19.10
2018-10-18T16:01:54.306Z,19.20
2018-10-18T16:04:27.193Z,19.20
2018-10-18T16:06:55.558Z,19.20
2018-10-18T16:09:23.947Z,19.20
2018-10-18T16:11:52.314Z,19.30
2018-10-18T16:14:20.820Z,19.30
2018-10-18T16:16:49.096Z,19.20
2018-10-18T16:19:17.448Z,19.20
2018-10-18T16:21:45.827Z,19.10
2018-10-18T16:24:14.192Z,19.10
2018-10-18T16:26:42.687Z,19.10
2018-10-18T16:29:11.043Z,19.10
2018-10-18T16:31:39.444Z,19.10
2018-10-18T16:34:07.842Z,19.00
2018-10-18T16:36:36.227Z,19.00
2018-10-18T16:39:07.663Z,19.00
2018-10-18T16:41:36.112Z,19.00
2018-10-18T16:44:04.519Z,18.90
2018-10-18T16:46:32.850Z,18.80
2018-10-18T16:49:01.242Z,18.70
2018-10-18T16:51:29.629Z,18.70
2018-10-18T16:53:58.128Z,18.70
2018-10-18T16:56:26.579Z,18.70
2018-10-18T16:58:54.982Z,18.70
2018-10-18T17:01:23.365Z,18.60
2018-10-18T17:03:51.806Z,18.60
2018-10-18T17:06:20.264Z,18.60
2018-10-18T17:08:48.665Z,18.40
2018-10-18T17:11:17.115Z,18.40
2018-10-18T17:13:45.475Z,18.40
2018-10-18T17:16:13.953Z,18.30
2018-10-18T17:18:42.290Z,18.30
2018-10-18T17:21:10.723Z,18.30
2018-10-18T17:23:39.163Z,18.30
2018-10-18T17:26:07.492Z,18.30
2018-10-18T17:28:35.882Z,18.30
2018-10-18T17:31:04.412Z,18.30
2018-10-18T17:33:32.822Z,18.20
2018-10-18T17:36:01.281Z,18.20
2018-10-18T17:38:29.659Z,18.20
2018-10-18T17:40:58.052Z,18.20
2018-10-18T17:43:26.537Z,18.00
2018-10-18T17:45:54.927Z,18.00
2018-10-18T17:48:23.406Z,18.00
2018-10-18T17:50:51.852Z,18.00
2018-10-18T17:53:20.267Z,18.00
2018-10-18T17:55:48.703Z,17.80
2018-10-18T17:58:17.154Z,17.80
2018-10-18T18:00:45.515Z,17.70
2018-10-18T18:03:13.912Z,17.60
2018-10-18T18:05:42.289Z,17.60
2018-10-18T18:08:10.759Z,17.60
2018-10-18T18:10:39.107Z,17.70
2018-10-18T18:13:07.547Z,17.60
2018-10-18T18:15:35.964Z,17.60
2018-10-18T18:18:04.418Z,17.60
2018-10-18T18:20:32.794Z,17.50
2018-10-18T18:23:01.235Z,17.60
2018-10-18T18:25:29.651Z,17.50
2018-10-18T18:27:58.046Z,17.50
2018-10-18T18:30:26.461Z,17.40
2018-10-18T18:32:54.890Z,17.20
2018-10-18T18:35:23.264Z,17.10
2018-10-18T18:37:51.693Z,17.10
2018-10-18T18:40:20.123Z,17.10
2018-10-18T18:42:48.511Z,17.10
2018-10-18T18:45:22.254Z,17.10
2018-10-18T18:47:50.619Z,17.00
2018-10-18T18:50:19.034Z,16.90
2018-10-18T18:52:47.532Z,16.80
2018-10-18T18:55:15.925Z,16.80
2018-10-18T18:57:44.312Z,16.70
2018-10-18T19:00:12.793Z,16.70
2018-10-18T19:02:41.118Z,16.60
2018-10-18T19:05:09.630Z,16.70
2018-10-18T19:07:38.025Z,16.70
2018-10-18T19:10:06.603Z,16.70
2018-10-18T19:12:35.012Z,16.60
2018-10-18T19:15:03.565Z,16.50
2018-10-18T19:17:31.930Z,16.50
2018-10-18T19:20:00.345Z,16.40
2018-10-18T19:22:28.803Z,16.40
2018-10-18T19:24:57.179Z,16.50
2018-10-18T19:27:25.555Z,16.40
2018-10-18T19:29:53.982Z,16.30
2018-10-18T19:32:22.366Z,16.30
2018-10-18T19:34:50.754Z,16.20
2018-10-18T19:37:19.132Z,16.20
2018-10-18T19:39:47.650Z,16.30
2018-10-18T19:42:16.063Z,16.30
2018-10-18T19:44:44.463Z,16.30
2018-10-18T19:47:12.857Z,16.30
2018-10-18T19:49:41.311Z,16.30
2018-10-18T19:52:10.070Z,16.30
2018-10-18T19:57:40.760Z,16.20
2018-10-18T20:00:09.465Z,16.20
2018-10-18T20:02:37.975Z,16.20
2018-10-18T20:05:06.921Z,16.20
2018-10-18T20:07:35.275Z,16.20
2018-10-18T20:10:03.687Z,16.10
2018-10-18T20:12:32.055Z,16.10
2018-10-18T20:15:00.448Z,16.10
2018-10-18T20:17:28.806Z,16.10
2018-10-18T20:19:57.253Z,16.10
2018-10-18T20:22:25.602Z,16.10
2018-10-18T20:24:54.041Z,16.20
2018-10-18T20:27:22.375Z,16.10
2018-10-18T20:29:50.761Z,16.10
2018-10-18T20:32:19.208Z,16.10
2018-10-18T20:34:47.570Z,16.10
2018-10-18T20:37:15.943Z,16.10
2018-10-18T20:39:44.434Z,16.10
2018-10-18T20:42:12.763Z,16.10
2018-10-18T20:44:41.157Z,16.20
2018-10-18T20:47:09.637Z,16.10
2018-10-18T20:49:38.053Z,16.20
2018-10-18T20:52:06.628Z,16.10
2018-10-18T20:54:35.094Z,16.10
2018-10-18T20:57:03.664Z,16.10
2018-10-18T20:59:32.084Z,16.00
2018-10-18T21:02:02.597Z,15.90
2018-10-18T21:04:30.975Z,15.80
2018-10-18T21:06:59.390Z,15.70
2018-10-18T21:09:27.775Z,15.80
2018-10-18T21:11:56.230Z,15.80
2018-10-18T21:14:24.558Z,15.70
2018-10-18T21:16:52.992Z,15.70
2018-10-18T21:19:21.404Z,15.60
2018-10-18T21:21:49.877Z,15.60
2018-10-18T21:24:18.267Z,15.70
2018-10-18T21:26:49.960Z,15.70
2018-10-18T21:29:18.354Z,15.60
2018-10-18T21:31:46.773Z,15.60
2018-10-18T21:34:15.274Z,15.60
2018-10-18T21:36:43.600Z,15.60
2018-10-18T21:39:12.152Z,15.60
2018-10-18T21:41:40.453Z,15.50
2018-10-18T21:44:08.920Z,15.50
2018-10-18T21:46:37.351Z,15.50
2018-10-18T21:49:05.791Z,15.50
2018-10-18T21:51:34.209Z,15.50
2018-10-18T21:54:02.567Z,15.50
2018-10-18T21:56:30.947Z,15.40
2018-10-18T21:58:59.720Z,15.40
2018-10-18T22:01:28.167Z,15.30
2018-10-18T22:03:56.513Z,15.30
2018-10-18T22:06:24.891Z,15.40
2018-10-18T22:08:53.251Z,15.40
2018-10-18T22:11:21.662Z,15.30
2018-10-18T22:13:50.041Z,15.30
2018-10-18T22:16:18.434Z,15.30
2018-10-18T22:18:46.823Z,15.30
2018-10-18T22:21:15.282Z,15.30
2018-10-18T22:23:43.619Z,15.20
2018-10-18T22:26:12.024Z,15.20
2018-10-18T22:28:40.400Z,15.00
2018-10-18T22:31:08.795Z,15.10
2018-10-18T22:33:37.163Z,15.30
2018-10-18T22:36:05.682Z,15.20
2018-10-18T22:38:34.079Z,15.20
2018-10-18T22:41:02.506Z,15.20
2018-10-18T22:43:30.851Z,15.10
2018-10-18T22:45:59.262Z,15.00
2018-10-18T22:48:28.543Z,15.00
2018-10-18T22:50:57.269Z,14.90
2018-10-18T22:53:25.738Z,14.80
2018-10-18T22:55:54.255Z,14.70
2018-10-18T22:58:22.647Z,14.60
2018-10-18T23:00:51.086Z,14.70
2018-10-18T23:03:20.663Z,14.60
2018-10-18T23:05:49.737Z,14.60
2018-10-18T23:08:18.152Z,14.60
2018-10-18T23:10:46.637Z,14.60
2018-10-18T23:13:15.035Z,14.60
2018-10-18T23:15:43.441Z,14.60
2018-10-18T23:18:11.878Z,14.50
2018-10-18T23:20:40.923Z,14.50
2018-10-18T23:23:09.817Z,14.40
2018-10-18T23:25:38.239Z,14.30
2018-10-18T23:28:06.645Z,14.40
2018-10-18T23:30:35.015Z,14.30
2018-10-18T23:33:03.439Z,14.20
2018-10-18T23:35:31.807Z,14.20
2018-10-18T23:38:00.182Z,14.20
2018-10-18T23:40:28.562Z,14.20
2018-10-18T23:42:56.951Z,14.10
2018-10-18T23:45:25.312Z,14.10
2018-10-18T23:47:54.134Z,14.00
2018-10-18T23:50:23.099Z,14.00
2018-10-18T23:52:51.588Z,14.10
2018-10-18T23:55:19.960Z,14.10
2018-10-18T23:57:48.359Z,14.10
